Time;durP1;ratioP1;P1;durP2;ratioP2;P2;SDS_P1;SDS_P2;PMS_P1;PMS_P2;Temp;Humidity;BMP_temperature;BMP_pressure;BME280_temperature;BME280_humidity;BME280_pressure;Samples;Min_cycle;Max_cycle;Signal;HPM_P1;HPM_P2
2023/09/13 04:22:33;;;;;;;3.80;2.42;;;;;;;19.33;100.00;100069.06;5109468;27;20836;-67
2023/09/13 04:24:58;;;;;;;3.83;2.90;;;;;;;19.34;100.00;100059.91;5108524;28;20104;-67
2023/09/13 04:27:24;;;;;;;3.35;2.72;;;;;;;19.33;100.00;100063.69;5108437;28;20648;-67
2023/09/13 04:29:52;;;;;;;3.88;3.17;;;;;;;19.33;100.00;100069.06;5108415;28;20028;-67
2023/09/13 04:32:19;;;;;;;;;;;;;;;19.35;100.00;100071.53;5109962;28;20056;-67
2023/09/13 04:34:46;;;;;;;3.60;2.78;;;;;;;19.31;100.00;100078.47;5108260;28;19916;-67
2023/09/13 04:37:12;;;;;;;3.78;2.97;;;;;;;19.29;100.00;100073.28;5108235;28;20093;-65
2023/09/13 04:39:37;;;;;;;3.30;2.88;;;;;;;19.29;100.00;100080.56;5109592;28;20044;-66
2023/09/13 04:42:03;;;;;;;5.38;3.22;;;;;;;19.29;100.00;100080.56;5107082;28;20044;-66
2023/09/13 04:44:29;;;;;;;3.00;2.42;;;;;;;19.31;100.00;100075.78;5108075;28;20036;-66
2023/09/13 04:46:57;;;;;;;4.75;3.00;;;;;;;19.33;100.00;100079.06;5109312;28;20055;-65
2023/09/13 04:49:23;;;;;;;5.22;4.07;;;;;;;19.35;100.00;100087.75;5108019;28;20051;-66
2023/09/13 04:51:48;;;;;;;4.30;3.25;;;;;;;19.34;100.00;100091.50;5107969;28;20513;-65
2023/09/13 04:54:14;;;;;;;4.30;3.50;;;;;;;19.33;100.00;100092.56;5107721;28;20441;-60
2023/09/13 04:56:39;;;;;;;3.47;2.70;;;;;;;19.28;100.00;100089.72;5107831;28;20127;-59
2023/09/13 04:59:05;;;;;;;3.60;2.88;;;;;;;19.30;100.00;100099.25;5109054;28;20054;-59
2023/09/13 05:01:31;;;;;;;3.63;3.08;;;;;;;19.27;100.00;100107.81;5107753;28;20035;-59
2023/09/13 05:03:58;;;;;;;4.30;3.42;;;;;;;19.24;100.00;100098.31;5107553;28;20031;-58
2023/09/13 05:06:23;;;;;;;3.63;2.80;;;;;;;19.25;100.00;100101.84;5108942;28;20539;-57
2023/09/13 05:08:52;;;;;;;4.25;3.15;;;;;;;19.21;100.00;100101.47;5108768;28;20036;-59
2023/09/13 05:11:17;;;;;;;3.75;3.30;;;;;;;19.27;100.00;100104.28;5108943;28;20059;-58
2023/09/13 05:13:47;;;;;;;3.88;2.75;;;;;;;19.32;100.00;100112.53;5108592;28;20067;-60
2023/09/13 05:16:19;;;;;;;4.95;2.80;;;;;;;19.33;100.00;100109.59;5108718;28;20039;-59
2023/09/13 05:18:44;;;;;;;3.70;2.88;;;;;;;19.31;100.00;100109.00;5108846;28;20122;-60
2023/09/13 05:21:10;;;;;;;5.10;3.05;;;;;;;19.32;100.00;100109.81;5108688;28;20127;-62
2023/09/13 05:23:35;;;;;;;3.85;3.45;;;;;;;19.33;100.00;100114.16;5108408;28;20486;-62
2023/09/13 05:26:02;;;;;;;5.13;3.53;;;;;;;19.35;100.00;100109.34;5108558;28;20491;-63
2023/09/13 05:28:33;;;;;;;3.65;3.35;;;;;;;19.28;100.00;100103.22;5108654;28;20040;-62
2023/09/13 05:30:58;;;;;;;3.63;3.05;;;;;;;19.29;100.00;100103.00;5108653;28;20405;-61
2023/09/13 05:33:25;;;;;;;4.10;3.22;;;;;;;19.21;100.00;100104.16;5097519;28;20044;-61
2023/09/13 05:35:51;;;;;;;5.10;3.70;;;;;;;19.23;100.00;100117.44;5094713;28;20590;-62
2023/09/13 05:38:16;;;;;;;5.63;3.42;;;;;;;19.22;100.00;100113.91;5083696;28;20020;-61
2023/09/13 05:40:42;;;;;;;5.43;3.45;;;;;;;19.18;100.00;100110.03;5074420;28;20048;-61
2023/09/13 05:43:07;;;;;;;5.32;3.90;;;;;;;19.21;100.00;100124.94;5074318;28;20041;-61
2023/09/13 05:45:32;;;;;;;4.47;3.67;;;;;;;19.20;100.00;100115.22;5074383;28;20445;-62
2023/09/13 05:47:59;;;;;;;7.07;4.05;;;;;;;19.19;100.00;100133.28;5074423;28;20040;-60
2023/09/13 05:50:28;;;;;;;5.57;4.30;;;;;;;19.16;100.00;100141.00;5074488;28;20414;-62
2023/09/13 05:52:54;;;;;;;8.25;4.88;;;;;;;19.12;100.00;100137.97;5074026;28;20032;-57
2023/09/13 05:55:20;;;;;;;4.70;3.78;;;;;;;19.04;100.00;100132.06;5074065;28;20115;-59
2023/09/13 05:57:46;;;;;;;5.28;4.15;;;;;;;19.04;100.00;100142.88;5074256;28;20115;-58
2023/09/13 06:00:13;;;;;;;6.17;4.50;;;;;;;19.05;100.00;100148.06;5074210;28;20048;-60
2023/09/13 06:02:39;;;;;;;5.07;3.95;;;;;;;19.05;100.00;100152.63;5073904;28;20282;-60
2023/09/13 06:05:05;;;;;;;5.80;3.72;;;;;;;19.02;100.00;100153.06;5072958;28;20044;-56
2023/09/13 06:07:30;;;;;;;4.60;3.47;;;;;;;19.00;100.00;100161.41;5073917;28;20036;-58
2023/09/13 06:09:58;;;;;;;5.18;4.10;;;;;;;19.01;100.00;100163.06;5073926;28;20063;-57
2023/09/13 06:12:23;;;;;;;5.82;3.72;;;;;;;19.02;100.00;100161.16;5073785;28;20490;-58
2023/09/13 06:14:51;;;;;;;8.27;5.10;;;;;;;18.97;100.00;100157.31;5073926;28;20037;-60
2023/09/13 06:17:16;;;;;;;8.35;4.63;;;;;;;18.96;100.00;100158.34;5073767;28;20487;-58
2023/09/13 06:19:42;;;;;;;6.97;4.20;;;;;;;19.00;100.00;100171.38;5072645;28;20048;-59
2023/09/13 06:22:08;;;;;;;6.43;4.07;;;;;;;19.01;100.00;100173.03;5073228;28;20131;-55
2023/09/13 06:24:34;;;;;;;8.63;4.10;;;;;;;18.99;100.00;100181.38;5073650;28;20037;-58
2023/09/13 06:26:59;;;;;;;7.22;4.63;;;;;;;18.98;100.00;100195.91;5073561;28;20048;-56
2023/09/13 06:29:24;;;;;;;6.32;4.05;;;;;;;19.01;100.00;100192.75;5073610;28;20151;-57
2023/09/13 06:31:54;;;;;;;7.97;4.38;;;;;;;18.97;100.00;100195.09;5073674;28;20032;-57
2023/09/13 06:34:19;;;;;;;6.40;3.95;;;;;;;19.02;100.00;100199.78;5073201;28;20037;-58
2023/09/13 06:36:46;;;;;;;6.28;4.53;;;;;;;19.02;100.00;100202.47;5072207;28;20470;-55
2023/09/13 06:39:12;;;;;;;6.20;4.03;;;;;;;19.03;100.00;100208.69;5073374;28;20109;-60
2023/09/13 06:41:37;;;;;;;7.88;4.95;;;;;;;19.04;100.00;100203.09;5073249;28;20558;-59
2023/09/13 06:44:08;;;;;;;7.00;4.38;;;;;;;19.03;100.00;100214.91;5072117;28;20029;-58
2023/09/13 06:46:34;;;;;;;7.28;4.55;;;;;;;19.02;100.00;100210.56;5073099;28;20127;-59
2023/09/13 06:48:59;;;;;;;5.80;4.40;;;;;;;19.09;100.00;100215.88;5073286;28;20115;-57
2023/09/13 06:51:24;;;;;;;5.97;4.15;;;;;;;19.11;100.00;100214.63;5073185;28;20032;-57
2023/09/13 06:53:50;;;;;;;5.85;4.25;;;;;;;19.16;100.00;100220.13;5072886;28;20570;-56
2023/09/13 06:56:15;;;;;;;5.25;3.85;;;;;;;19.17;100.00;100219.09;5073294;28;20033;-60
2023/09/13 06:58:41;;;;;;;5.50;4.07;;;;;;;19.20;100.00;100226.72;5073058;28;20132;-60
2023/09/13 07:01:06;;;;;;;4.75;4.15;;;;;;;19.21;100.00;100239.16;5072912;28;20049;-59
2023/09/13 07:03:31;;;;;;;5.38;4.32;;;;;;;19.22;100.00;100231.88;5072711;28;20033;-60
2023/09/13 07:05:57;;;;;;;5.93;4.07;;;;;;;19.22;100.00;100229.19;5071700;28;20407;-59
2023/09/13 07:08:22;;;;;;;4.80;3.80;;;;;;;19.20;100.00;100221.31;5072834;28;20044;-58
2023/09/13 07:10:48;;;;;;;6.38;4.40;;;;;;;19.21;100.00;100211.34;5071675;28;20036;-55
2023/09/13 07:13:13;;;;;;;4.68;3.95;;;;;;;19.25;100.00;100207.97;5075228;28;20401;-58
2023/09/13 07:15:39;;;;;;;6.28;4.32;;;;;;;19.32;100.00;100212.44;5092847;28;20050;-56
2023/09/13 07:18:04;;;;;;;5.50;4.03;;;;;;;19.37;100.00;100213.41;5093039;28;20044;-59
2023/09/13 07:20:30;;;;;;;6.10;4.22;;;;;;;19.43;100.00;100219.72;5092699;28;20047;-59
2023/09/13 07:22:55;;;;;;;7.43;5.13;;;;;;;19.43;100.00;100212.47;5092550;28;20493;-57
2023/09/13 07:25:20;;;;;;;7.68;4.78;;;;;;;19.47;100.00;100219.03;5092670;28;20168;-59
2023/09/13 07:27:46;;;;;;;5.85;4.68;;;;;;;19.58;100.00;100222.03;5092777;28;20089;-58
2023/09/13 07:30:12;;;;;;;7.03;4.30;;;;;;;19.62;100.00;100224.03;5092608;28;20081;-58
2023/09/13 07:32:37;;;;;;;7.35;4.63;;;;;;;19.61;100.00;100222.38;5092401;28;20126;-57
2023/09/13 07:35:03;;;;;;;6.45;4.70;;;;;;;19.66;100.00;100224.38;5091471;28;20036;-57
2023/09/13 07:37:30;;;;;;;7.30;4.90;;;;;;;19.74;100.00;100226.75;5092369;28;20040;-60
2023/09/13 07:39:56;;;;;;;6.38;4.50;;;;;;;19.72;100.00;100226.97;5092507;28;20051;-58
2023/09/13 07:42:23;;;;;;;5.13;4.18;;;;;;;19.74;100.00;100232.97;5092110;28;20463;-57
2023/09/13 07:44:48;;;;;;;6.18;4.35;;;;;;;19.83;100.00;100221.84;5092410;28;20040;-59
2023/09/13 07:47:14;;;;;;;6.20;4.50;;;;;;;19.85;100.00;100227.81;5092381;28;20043;-57
2023/09/13 07:49:39;;;;;;;6.68;4.55;;;;;;;19.88;100.00;100220.03;5091215;28;20047;-59
2023/09/13 07:52:05;;;;;;;5.53;4.10;;;;;;;19.90;100.00;100230.66;5091437;28;20078;-55
2023/09/13 07:54:31;;;;;;;5.35;4.30;;;;;;;19.95;100.00;100228.88;5092293;28;20490;-59
2023/09/13 07:56:56;;;;;;;5.32;4.18;;;;;;;19.98;100.00;100239.22;5091985;28;20040;-60
2023/09/13 07:59:21;;;;;;;5.20;3.97;;;;;;;20.01;100.00;100235.22;5092176;28;20062;-59
2023/09/13 08:01:48;;;;;;;4.97;4.45;;;;;;;20.01;100.00;100240.63;5091940;28;20443;-59
2023/09/13 08:04:13;;;;;;;6.72;4.68;;;;;;;20.02;100.00;100240.41;5091919;28;20036;-60
2023/09/13 08:06:41;;;;;;;5.18;4.05;;;;;;;20.02;100.00;100239.59;5092023;28;20418;-59
2023/09/13 08:09:07;;;;;;;6.45;4.07;;;;;;;20.02;100.00;100245.00;5092150;28;20043;-56
2023/09/13 08:11:32;;;;;;;4.47;3.80;;;;;;;20.01;100.00;100251.44;5092160;28;20032;-58
2023/09/13 08:13:58;;;;;;;4.93;3.35;;;;;;;20.06;100.00;100248.84;5091893;28;20513;-60
2023/09/13 08:16:24;;;;;;;7.03;4.00;;;;;;;20.05;100.00;100255.31;5091998;28;20174;-60
2023/09/13 08:18:49;;;;;;;5.78;3.92;;;;;;;20.10;100.00;100258.16;5091994;28;20039;-59
2023/09/13 08:21:14;;;;;;;4.97;4.15;;;;;;;20.18;100.00;100260.50;5091756;28;20119;-59
2023/09/13 08:23:40;;;;;;;5.20;3.60;;;;;;;20.19;100.00;100256.72;5091774;28;20035;-58
2023/09/13 08:26:05;;;;;;;6.20;3.53;;;;;;;20.24;100.00;100267.66;5091874;28;20035;-58
2023/09/13 08:28:31;;;;;;;6.30;4.50;;;;;;;20.22;100.00;100264.38;5092029;28;20081;-58
2023/09/13 08:30:56;;;;;;;5.50;4.25;;;;;;;20.27;100.00;100264.47;5091993;28;20036;-59
2023/09/13 08:33:21;;;;;;;5.38;3.72;;;;;;;20.33;100.00;100262.72;5091725;28;20036;-58
2023/09/13 08:35:47;;;;;;;5.07;4.40;;;;;;;20.37;100.00;100263.06;5091810;28;20101;-60
2023/09/13 08:38:13;;;;;;;8.48;4.22;;;;;;;20.37;100.00;100263.06;5091892;28;20032;-59
2023/09/13 08:40:40;;;;;;;4.15;3.50;;;;;;;20.46;100.00;100269.78;5091705;28;20039;-59
2023/09/13 08:43:07;;;;;;;;;;;;;;;20.46;100.00;100269.78;5091979;28;20039;-59
2023/09/13 08:45:34;;;;;;;4.80;4.20;;;;;;;20.49;100.00;100275.56;5091815;28;19916;-59
2023/09/13 08:48:01;;;;;;;5.13;3.67;;;;;;;20.57;100.00;100271.66;5091845;28;20551;-60
2023/09/13 08:50:28;;;;;;;8.90;4.45;;;;;;;20.58;100.00;100265.19;5091760;28;20039;-59
2023/09/13 08:52:58;;;;;;;6.20;4.10;;;;;;;20.70;100.00;100265.16;5091510;28;20032;-60
2023/09/13 08:55:25;;;;;;;5.70;3.83;;;;;;;20.79;100.00;100274.53;5091606;28;20043;-59
2023/09/13 08:57:51;;;;;;;5.18;4.15;;;;;;;20.85;100.00;100274.41;5091690;28;20035;-58
2023/09/13 09:00:18;;;;;;;6.40;3.60;;;;;;;20.90;100.00;100270.16;5091527;28;20043;-59
2023/09/13 09:02:46;;;;;;;5.70;3.70;;;;;;;20.93;100.00;100267.81;5091320;28;20065;-57
2023/09/13 09:05:15;;;;;;;4.15;3.75;;;;;;;20.97;100.00;100268.13;5091592;28;20036;-58
2023/09/13 09:07:43;;;;;;;5.65;4.07;;;;;;;20.98;100.00;100273.28;5091397;28;20491;-58
2023/09/13 09:10:11;;;;;;;4.28;3.22;;;;;;;21.05;100.00;100279.38;5095369;28;20042;-59
2023/09/13 09:12:41;;;;;;;5.47;4.07;;;;;;;21.12;100.00;100281.94;5095128;28;20039;-58
2023/09/13 09:15:08;;;;;;;4.55;3.53;;;;;;;21.16;100.00;100288.53;5095368;28;20406;-59
2023/09/13 09:17:35;;;;;;;6.88;4.65;;;;;;;21.21;100.00;100288.66;5095231;28;20024;-58
2023/09/13 09:20:01;;;;;;;4.82;3.50;;;;;;;21.24;100.00;100290.84;5095361;28;20044;-60
2023/09/13 09:22:29;;;;;;;5.18;3.88;;;;;;;21.27;100.00;100287.69;5094630;28;20166;-60
2023/09/13 09:24:57;;;;;;;5.25;3.95;;;;;;;21.30;100.00;100289.91;5095173;28;20048;-59
2023/09/13 09:27:22;;;;;;;6.15;4.28;;;;;;;21.38;100.00;100286.00;5095167;28;20036;-59
2023/09/13 09:29:59;;;;;;;5.53;4.10;;;;;;;21.37;100.00;100290.59;5095146;28;20407;-59
2023/09/13 09:32:30;;;;;;;5.93;4.07;;;;;;;21.44;100.00;100297.75;5094791;28;20040;-58
2023/09/13 09:34:58;;;;;;;6.20;4.40;;;;;;;21.43;99.57;100293.41;5094893;28;20040;-57
2023/09/13 09:37:32;;;;;;;5.55;4.20;;;;;;;21.47;99.07;100298.09;5094824;28;20036;-57
2023/09/13 09:39:57;;;;;;;7.78;4.00;;;;;;;21.51;99.28;100290.28;5094818;28;20032;-60
2023/09/13 09:42:23;;;;;;;5.70;3.80;;;;;;;21.55;97.37;100294.16;5094545;28;20387;-58
2023/09/13 09:44:49;;;;;;;6.38;4.25;;;;;;;21.54;98.06;100296.06;5094767;28;20028;-59
2023/09/13 09:47:14;;;;;;;6.25;4.50;;;;;;;21.59;96.41;100295.34;5094611;28;20044;-58
2023/09/13 09:49:43;;;;;;;6.35;4.07;;;;;;;21.51;96.31;100303.84;5094727;28;20016;-58
2023/09/13 09:52:10;;;;;;;4.72;4.22;;;;;;;21.54;95.72;100296.06;5094369;28;20059;-59
2023/09/13 09:54:37;;;;;;;5.80;3.88;;;;;;;21.63;95.99;100302.72;5094912;28;20090;-60
2023/09/13 09:57:02;;;;;;;6.80;3.95;;;;;;;21.72;95.74;100308.56;5094623;28;20028;-58
2023/09/13 09:59:33;;;;;;;6.38;4.68;;;;;;;21.78;94.60;100314.88;5094620;28;20036;-60
2023/09/13 10:01:59;;;;;;;6.57;4.60;;;;;;;21.85;93.61;100312.84;5085181;28;20036;-59
2023/09/13 10:04:25;;;;;;;5.90;4.05;;;;;;;21.92;93.10;100313.50;5084408;28;20417;-60
2023/09/13 10:07:03;;;;;;;5.78;4.43;;;;;;;21.98;92.78;100309.81;5084377;28;20041;-60
2023/09/13 10:09:42;;;;;;;5.47;4.22;;;;;;;22.08;93.25;100309.97;5084112;28;20115;-61
2023/09/13 10:12:09;;;;;;;5.53;4.25;;;;;;;22.13;92.80;100310.06;5083704;28;20044;-60
2023/09/13 10:14:36;;;;;;;5.45;4.43;;;;;;;22.12;93.04;100313.88;5085659;28;20473;-59
2023/09/13 10:17:05;;;;;;;5.78;4.93;;;;;;;22.14;92.20;100317.13;5077999;28;20113;-59
2023/09/13 10:19:32;;;;;;;7.30;4.65;;;;;;;22.13;91.17;100318.22;5073782;28;20072;-60
2023/09/13 10:21:58;;;;;;;5.65;4.57;;;;;;;22.07;91.41;100316.47;5073468;28;20037;-60
2023/09/13 10:24:28;;;;;;;6.47;4.43;;;;;;;21.97;92.75;100310.84;5073776;28;20395;-59
2023/09/13 10:26:55;;;;;;;5.82;4.28;;;;;;;22.10;91.85;100310.56;5073904;28;20490;-60
2023/09/13 10:29:38;;;;;;;6.15;4.28;;;;;;;22.18;91.28;100310.16;5073706;28;20036;-59
2023/09/13 10:32:07;;;;;;;5.15;4.32;;;;;;;22.28;90.45;100301.34;5073425;28;20501;-59
2023/09/13 10:34:41;;;;;;;5.72;4.15;;;;;;;22.38;90.01;100298.78;5073633;28;20572;-59
2023/09/13 10:37:20;;;;;;;4.88;3.70;;;;;;;22.51;89.18;100294.06;5073599;28;20048;-59
2023/09/13 10:39:51;;;;;;;4.75;3.70;;;;;;;22.59;89.32;100301.78;5073500;28;20394;-58
2023/09/13 10:42:18;;;;;;;6.05;3.47;;;;;;;22.75;88.44;100300.91;5073392;28;20945;-60
2023/09/13 10:44:45;;;;;;;5.70;4.00;;;;;;;22.85;88.39;100301.03;5073475;28;20035;-57
2023/09/13 10:47:11;;;;;;;;;;;;;;;23.17;85.32;100301.16;5073695;28;20133;-58
2023/09/13 10:49:38;;;;;;;4.50;3.78;;;;;;;23.54;81.94;100304.00;5073182;28;19958;-58
2023/09/13 10:52:05;;;;;;;5.75;4.22;;;;;;;23.77;81.79;100296.63;5073068;28;20032;-59
2023/09/13 10:54:31;;;;;;;4.13;3.50;;;;;;;23.99;76.99;100305.50;5072967;28;20045;-58
2023/09/13 10:56:57;;;;;;;3.70;3.30;;;;;;;24.03;79.15;100303.09;5071507;28;20482;-58
2023/09/13 10:59:25;;;;;;;4.03;3.20;;;;;;;24.28;78.52;100307.88;5073066;28;20036;-59
2023/09/13 11:01:51;;;;;;;4.72;2.92;;;;;;;24.68;74.38;100307.31;5073058;28;20032;-61
2023/09/13 11:04:19;;;;;;;3.40;3.10;;;;;;;24.78;75.15;100312.03;5071705;28;20067;-60
2023/09/13 11:06:45;;;;;;;3.28;2.78;;;;;;;24.75;74.67;100307.09;5072868;28;20453;-60
2023/09/13 11:09:12;;;;;;;3.95;2.75;;;;;;;24.94;75.18;100302.81;5072881;28;20036;-59
2023/09/13 11:11:38;;;;;;;4.32;3.20;;;;;;;25.18;73.47;100305.94;5072731;28;20049;-61
2023/09/13 11:14:10;;;;;;;3.92;2.85;;;;;;;25.12;69.60;100310.53;5072524;28;20143;-60
2023/09/13 11:16:35;;;;;;;3.60;2.80;;;;;;;25.06;71.61;100313.53;5072640;28;20040;-60
2023/09/13 11:19:03;;;;;;;3.90;2.88;;;;;;;24.82;71.69;100318.56;5072661;28;20105;-57
2023/09/13 11:21:52;;;;;;;4.85;2.88;;;;;;;24.51;75.35;100323.03;5072569;28;20503;-58
2023/09/13 11:24:41;;;;;;;3.42;2.90;;;;;;;24.47;73.10;100321.94;5072782;28;20437;-60
2023/09/13 11:27:10;;;;;;;3.67;2.40;;;;;;;24.21;75.50;100323.63;5072538;28;20098;-59
2023/09/13 11:29:40;;;;;;;4.07;2.75;;;;;;;24.01;75.75;100318.84;5072481;28;20079;-57
2023/09/13 11:32:05;;;;;;;3.40;2.70;;;;;;;23.65;78.46;100323.16;5071801;28;20056;-60
2023/09/13 11:34:33;;;;;;;3.08;2.78;;;;;;;23.57;80.80;100316.25;5072423;28;20036;-58
2023/09/13 11:37:00;;;;;;;3.28;2.85;;;;;;;23.36;80.33;100319.84;5072264;28;20415;-60
2023/09/13 11:39:27;;;;;;;4.55;3.17;;;;;;;23.27;80.95;100316.75;5072316;28;20040;-59
2023/09/13 11:41:53;;;;;;;3.63;2.97;;;;;;;23.29;80.38;100318.16;5072287;28;20119;-59
2023/09/13 11:44:21;;;;;;;5.90;2.85;;;;;;;23.25;81.55;100316.19;5072503;28;20368;-57
2023/09/13 11:46:49;;;;;;;4.47;2.67;;;;;;;23.35;81.63;100321.75;5072096;28;20166;-61
2023/09/13 11:49:19;;;;;;;3.63;3.03;;;;;;;23.40;80.26;100324.50;5072373;28;20041;-56
2023/09/13 11:51:58;;;;;;;3.45;3.00;;;;;;;23.61;81.13;100324.72;5072056;28;20038;-57
2023/09/13 11:54:25;;;;;;;2.97;2.53;;;;;;;23.63;76.96;100315.25;5072215;28;20086;-59
2023/09/13 11:56:52;;;;;;;3.50;2.70;;;;;;;23.69;76.77;100318.84;5070926;28;20039;-59
2023/09/13 11:59:30;;;;;;;2.95;2.67;;;;;;;23.78;77.72;100322.72;5072107;28;20036;-59
2023/09/13 12:01:56;;;;;;;6.65;2.92;;;;;;;23.72;77.72;100310.16;5072069;28;20037;-58
2023/09/13 12:04:25;;;;;;;3.60;2.65;;;;;;;23.90;76.75;100311.69;5071789;28;20043;-57
2023/09/13 12:06:55;;;;;;;3.72;2.65;;;;;;;23.87;76.28;100326.63;5071901;28;20052;-58
2023/09/13 12:09:22;;;;;;;3.20;2.72;;;;;;;23.81;76.88;100316.78;5071969;28;20495;-58
2023/09/13 12:11:53;;;;;;;3.17;2.70;;;;;;;23.75;78.64;100315.09;5071940;28;20032;-58
2023/09/13 12:14:21;;;;;;;5.07;2.53;;;;;;;23.85;77.15;100312.44;5071665;28;20041;-59
2023/09/13 12:16:50;;;;;;;2.75;2.22;;;;;;;23.83;77.73;100307.28;5071818;28;20479;-58
2023/09/13 12:19:16;;;;;;;3.42;2.50;;;;;;;23.88;76.81;100308.41;5071858;28;20051;-57
2023/09/13 12:21:46;;;;;;;4.07;2.67;;;;;;;23.87;78.22;100307.59;5071788;28;20044;-58
2023/09/13 12:24:23;;;;;;;3.42;2.70;;;;;;;23.94;76.60;100324.50;5071523;28;20044;-56
2023/09/13 12:26:52;;;;;;;3.72;2.70;;;;;;;23.94;75.80;100321.78;5071761;28;20032;-59
2023/09/13 12:29:17;;;;;;;2.67;2.40;;;;;;;23.96;75.27;100319.63;5071764;28;20048;-59
2023/09/13 12:31:43;;;;;;;2.70;2.30;;;;;;;23.77;75.70;100323.81;5071691;28;20606;-57
2023/09/13 12:34:09;;;;;;;2.28;2.08;;;;;;;23.68;75.37;100322.66;5071517;28;20135;-60
2023/09/13 12:36:35;;;;;;;2.13;1.92;;;;;;;23.64;74.90;100324.22;5071801;28;20115;-60
2023/09/13 12:39:00;;;;;;;2.65;2.20;;;;;;;23.64;75.34;100321.50;5071634;28;20032;-59
2023/09/13 12:41:31;;;;;;;3.08;2.30;;;;;;;23.61;76.47;100325.59;5071717;28;20031;-59
2023/09/13 12:43:57;;;;;;;2.47;2.20;;;;;;;23.64;79.79;100330.50;5074711;28;20047;-57
2023/09/13 12:46:26;;;;;;;2.72;2.35;;;;;;;23.68;80.45;100330.81;5075723;28;20029;-59
2023/09/13 12:48:55;;;;;;;3.65;2.38;;;;;;;23.76;81.66;100333.06;5075636;28;20127;-59
2023/09/13 12:51:22;;;;;;;4.25;2.30;;;;;;;23.80;82.85;100334.19;5075492;28;20052;-59
2023/09/13 12:53:52;;;;;;;2.97;2.38;;;;;;;23.76;82.36;100327.63;5075236;28;20066;-58
2023/09/13 12:56:18;;;;;;;2.92;2.20;;;;;;;23.64;83.07;100318.78;5075331;28;20460;-58
2023/09/13 12:58:57;;;;;;;2.50;2.20;;;;;;;23.58;84.23;100314.34;5074019;28;20082;-57
2023/09/13 13:01:24;;;;;;;2.72;2.30;;;;;;;23.60;84.35;100317.63;5075331;28;20238;-58
2023/09/13 13:04:06;;;;;;;2.92;2.38;;;;;;;23.82;83.29;100311.09;5075000;28;20547;-56
2023/09/13 13:06:36;;;;;;;3.33;2.28;;;;;;;24.10;83.78;100314.56;5075124;28;20032;-59
2023/09/13 13:09:09;;;;;;;3.33;2.45;;;;;;;24.39;80.35;100311.50;5075156;28;20040;-59
2023/09/13 13:11:37;;;;;;;3.20;2.40;;;;;;;24.33;77.93;100316.09;5074991;28;20045;-58
2023/09/13 13:14:11;;;;;;;4.47;2.42;;;;;;;24.17;80.48;100314.34;5074752;28;20040;-59
2023/09/13 13:16:36;;;;;;;3.50;2.42;;;;;;;24.26;80.73;100307.34;5074954;28;20037;-59
2023/09/13 13:19:02;;;;;;;4.05;2.58;;;;;;;24.60;80.84;100310.56;5074923;28;20044;-58
2023/09/13 13:21:27;;;;;;;2.55;2.33;;;;;;;24.49;75.99;100314.31;5074872;28;20047;-59
2023/09/13 13:23:53;;;;;;;4.50;2.53;;;;;;;24.61;75.58;100296.69;5074644;28;20518;-59
2023/09/13 13:26:20;;;;;;;4.35;2.50;;;;;;;24.71;74.76;100295.88;5074777;28;20463;-56
2023/09/13 13:28:46;;;;;;;4.18;2.30;;;;;;;24.64;75.50;100296.13;5074809;28;20048;-57
2023/09/13 13:31:18;;;;;;;3.10;2.53;;;;;;;24.47;75.62;100300.97;5074732;28;20590;-59
2023/09/13 13:33:43;;;;;;;3.35;2.42;;;;;;;24.41;75.49;100301.19;5074473;28;20101;-58
2023/09/13 13:36:09;;;;;;;3.83;2.70;;;;;;;24.40;75.85;100294.94;5074661;28;20040;-57
2023/09/13 13:38:34;;;;;;;3.05;2.38;;;;;;;24.23;76.64;100296.97;5074736;28;20060;-59
2023/09/13 13:41:14;;;;;;;3.15;2.60;;;;;;;24.28;77.60;100294.28;5074596;28;20475;-59
2023/09/13 13:43:40;;;;;;;3.75;2.72;;;;;;;24.56;75.02;100285.75;5074243;28;20116;-59
2023/09/13 13:46:08;;;;;;;2.87;2.57;;;;;;;24.85;71.92;100291.63;5074393;28;20028;-58
2023/09/13 13:48:35;;;;;;;2.92;2.60;;;;;;;25.04;69.97;100282.94;5074512;28;20041;-59
2023/09/13 13:51:04;;;;;;;3.42;2.70;;;;;;;25.31;69.06;100288.25;5074343;28;20040;-57
2023/09/13 13:53:30;;;;;;;3.53;2.50;;;;;;;25.60;63.28;100283.09;5073613;28;20075;-59
2023/09/13 13:55:56;;;;;;;3.47;2.43;;;;;;;26.20;57.68;100278.72;5074243;28;20031;-57
2023/09/13 13:58:22;;;;;;;2.67;2.20;;;;;;;26.48;57.26;100282.78;5074192;28;20045;-59
2023/09/13 14:00:52;;;;;;;2.70;2.50;;;;;;;26.55;54.78;100280.59;5074217;28;20029;-59
2023/09/13 14:03:18;;;;;;;3.28;2.33;;;;;;;26.50;56.73;100275.13;5073886;28;20381;-57
2023/09/13 14:05:44;;;;;;;3.25;2.10;;;;;;;26.50;54.97;100277.88;5074164;28;20029;-60
2023/09/13 14:08:10;;;;;;;4.55;2.50;;;;;;;26.17;51.90;100271.91;5074147;28;20392;-60
2023/09/13 14:10:40;;;;;;;2.83;2.30;;;;;;;26.00;53.96;100278.75;5073955;28;20119;-60
2023/09/13 14:13:13;;;;;;;2.47;2.10;;;;;;;25.94;55.26;100281.47;5073784;28;20123;-59
2023/09/13 14:15:39;;;;;;;2.63;2.38;;;;;;;25.84;55.49;100277.94;5074049;28;20103;-58
2023/09/13 14:18:05;;;;;;;2.78;2.58;;;;;;;25.64;56.56;100276.81;5073872;28;20060;-58
2023/09/13 14:20:31;;;;;;;4.00;2.33;;;;;;;25.42;56.18;100273.53;5073832;28;20063;-59
2023/09/13 14:22:57;;;;;;;3.03;2.20;;;;;;;25.23;56.27;100270.50;5073683;28;20059;-58
2023/09/13 14:25:23;;;;;;;5.68;2.40;;;;;;;25.08;56.18;100270.47;5072484;28;20035;-58
2023/09/13 14:27:49;;;;;;;5.18;2.50;;;;;;;24.90;57.34;100269.00;5073654;28;20096;-57
2023/09/13 14:30:15;;;;;;;4.60;2.57;;;;;;;24.75;56.92;100271.69;5073639;28;20074;-60
2023/09/13 14:32:41;;;;;;;4.30;2.63;;;;;;;24.66;58.29;100273.28;5073307;28;20393;-59
2023/09/13 14:35:06;;;;;;;3.40;2.42;;;;;;;24.51;59.24;100274.84;5073592;28;20036;-58
2023/09/13 14:37:32;;;;;;;5.05;2.70;;;;;;;24.48;58.88;100267.22;5073396;28;20062;-59
2023/09/13 14:39:57;;;;;;;6.97;2.80;;;;;;;24.38;60.05;100272.59;5073509;28;20028;-59
2023/09/13 14:42:23;;;;;;;2.83;2.30;;;;;;;24.37;59.91;100268.22;5073032;28;20033;-58
2023/09/13 14:44:49;;;;;;;4.55;2.60;;;;;;;24.34;60.30;100274.22;5073408;28;20111;-59
2023/09/13 14:47:15;;;;;;;4.75;2.75;;;;;;;24.30;59.47;100271.16;5073322;28;20514;-60
2023/09/13 14:49:41;;;;;;;3.42;2.42;;;;;;;24.28;59.58;100264.34;5073255;28;20040;-58
2023/09/13 14:52:08;;;;;;;5.25;2.78;;;;;;;24.31;59.71;100271.97;5072969;28;20381;-59
2023/09/13 14:54:33;;;;;;;3.97;2.58;;;;;;;24.24;58.97;100272.19;5073254;28;20040;-60
2023/09/13 14:56:59;;;;;;;2.60;2.38;;;;;;;24.22;59.20;100270.84;5072993;28;20131;-59
2023/09/13 14:59:24;;;;;;;2.80;2.40;;;;;;;24.21;60.38;100274.66;5073114;28;20101;-58
2023/09/13 15:01:50;;;;;;;2.58;2.38;;;;;;;24.19;62.21;100271.34;5072980;28;20105;-60
2023/09/13 15:04:16;;;;;;;2.70;2.50;;;;;;;24.16;60.60;100272.69;5072886;28;20028;-59
2023/09/13 15:06:41;;;;;;;2.72;2.30;;;;;;;24.18;62.56;100269.72;5072045;28;20622;-60
2023/09/13 15:09:07;;;;;;;3.42;2.50;;;;;;;24.10;65.12;100277.28;5072840;28;20037;-58
2023/09/13 15:11:34;;;;;;;3.22;2.80;;;;;;;24.04;68.07;100278.31;5072685;28;20410;-59
2023/09/13 15:14:00;;;;;;;2.67;2.47;;;;;;;24.04;69.71;100278.31;5072614;28;20039;-59
2023/09/13 15:16:26;;;;;;;4.85;2.90;;;;;;;24.05;70.78;100282.69;5072638;28;20036;-58
2023/09/13 15:18:51;;;;;;;4.65;2.58;;;;;;;24.00;72.69;100282.66;5072727;28;20066;-58
2023/09/13 15:21:17;;;;;;;3.75;2.88;;;;;;;23.98;73.67;100284.81;5072619;28;20028;-58
2023/09/13 15:23:46;;;;;;;6.60;3.05;;;;;;;24.07;74.16;100280.53;5072384;28;20131;-60
2023/09/13 15:26:11;;;;;;;4.32;2.80;;;;;;;24.14;72.32;100280.31;5072432;28;20044;-56
2023/09/13 15:28:36;;;;;;;3.17;2.75;;;;;;;24.25;70.55;100281.19;5072610;28;20102;-59
2023/09/13 15:31:02;;;;;;;4.20;2.88;;;;;;;24.41;70.45;100285.69;5072448;28;20055;-58
2023/09/13 15:33:27;;;;;;;4.57;2.80;;;;;;;24.52;69.51;100276.50;5072192;28;20047;-59
2023/09/13 15:35:53;;;;;;;4.28;2.70;;;;;;;24.54;67.11;100273.50;5072397;28;20063;-59
2023/09/13 15:38:18;;;;;;;4.40;2.70;;;;;;;24.59;67.63;100270.81;5072484;28;20063;-57
2023/09/13 15:40:45;;;;;;;3.05;2.33;;;;;;;24.62;66.08;100281.16;5072370;28;20078;-58
2023/09/13 15:43:10;;;;;;;2.50;2.30;;;;;;;24.53;67.23;100283.56;5072042;28;20040;-58